sensor_id;sensor_type;location;lat;lon;timestamp;P1;durP1;ratioP1;P2;durP2;ratioP2
65145;SDS011;51730;56.950;24.126;2022-07-22T00:00:28;18.42;;;11.77;;
65145;SDS011;51730;56.950;24.126;2022-07-22T00:02:55;16.50;;;11.32;;
65145;SDS011;51730;56.950;24.126;2022-07-22T00:05:22;14.90;;;11.65;;
65145;SDS011;51730;56.950;24.126;2022-07-22T00:07:49;19.27;;;11.40;;
65145;SDS011;51730;56.950;24.126;2022-07-22T00:10:16;20.85;;;11.40;;
65145;SDS011;51730;56.950;24.126;2022-07-22T00:12:43;18.33;;;11.18;;
65145;SDS011;51730;56.950;24.126;2022-07-22T00:15:10;17.15;;;10.80;;
65145;SDS011;51730;56.950;24.126;2022-07-22T00:17:37;17.25;;;11.52;;
65145;SDS011;51730;56.950;24.126;2022-07-22T00:20:05;16.25;;;11.15;;
65145;SDS011;51730;56.950;24.126;2022-07-22T00:22:36;14.45;;;10.43;;
65145;SDS011;51730;56.950;24.126;2022-07-22T00:25:03;19.42;;;10.45;;
65145;SDS011;51730;56.950;24.126;2022-07-22T00:27:30;16.73;;;9.95;;
65145;SDS011;51730;56.950;24.126;2022-07-22T00:29:57;17.23;;;10.57;;
65145;SDS011;51730;56.950;24.126;2022-07-22T00:32:24;15.85;;;10.90;;
65145;SDS011;51730;56.950;24.126;2022-07-22T00:34:51;17.35;;;11.73;;
65145;SDS011;51730;56.950;24.126;2022-07-22T00:37:22;17.33;;;11.02;;
65145;SDS011;51730;56.950;24.126;2022-07-22T00:39:49;14.40;;;10.13;;
65145;SDS011;51730;56.950;24.126;2022-07-22T00:42:16;17.52;;;10.75;;
65145;SDS011;51730;56.950;24.126;2022-07-22T00:44:48;18.83;;;10.93;;
65145;SDS011;51730;56.950;24.126;2022-07-22T00:47:15;19.15;;;10.63;;
65145;SDS011;51730;56.950;24.126;2022-07-22T00:49:45;20.67;;;12.02;;
65145;SDS011;51730;56.950;24.126;2022-07-22T00:52:13;17.25;;;11.27;;
65145;SDS011;51730;56.950;24.126;2022-07-22T00:54:40;18.40;;;11.18;;
65145;SDS011;51730;56.950;24.126;2022-07-22T00:57:07;15.90;;;11.27;;
65145;SDS011;51730;56.950;24.126;2022-07-22T00:59:34;17.02;;;11.48;;
65145;SDS011;51730;56.950;24.126;2022-07-22T01:02:01;17.67;;;10.80;;
65145;SDS011;51730;56.950;24.126;2022-07-22T01:04:29;25.52;;;10.95;;
65145;SDS011;51730;56.950;24.126;2022-07-22T01:06:56;17.65;;;11.52;;
65145;SDS011;51730;56.950;24.126;2022-07-22T01:09:23;20.30;;;11.77;;
65145;SDS011;51730;56.950;24.126;2022-07-22T01:11:50;19.60;;;11.60;;
65145;SDS011;51730;56.950;24.126;2022-07-22T01:14:17;17.90;;;12.15;;
65145;SDS011;51730;56.950;24.126;2022-07-22T01:16:45;22.80;;;15.48;;
65145;SDS011;51730;56.950;24.126;2022-07-22T01:19:15;31.25;;;19.17;;
65145;SDS011;51730;56.950;24.126;2022-07-22T01:21:42;25.17;;;14.73;;
65145;SDS011;51730;56.950;24.126;2022-07-22T01:24:09;22.60;;;13.27;;
65145;SDS011;51730;56.950;24.126;2022-07-22T01:26:36;22.58;;;13.45;;
65145;SDS011;51730;56.950;24.126;2022-07-22T01:29:03;20.38;;;12.55;;
65145;SDS011;51730;56.950;24.126;2022-07-22T01:31:30;20.38;;;13.10;;
65145;SDS011;51730;56.950;24.126;2022-07-22T01:33:58;19.42;;;12.63;;
65145;SDS011;51730;56.950;24.126;2022-07-22T01:36:25;21.85;;;13.30;;
65145;SDS011;51730;56.950;24.126;2022-07-22T01:38:53;19.95;;;12.52;;
65145;SDS011;51730;56.950;24.126;2022-07-22T01:41:20;20.13;;;11.40;;
65145;SDS011;51730;56.950;24.126;2022-07-22T01:43:47;15.30;;;11.38;;
65145;SDS011;51730;56.950;24.126;2022-07-22T01:46:15;20.17;;;11.82;;
65145;SDS011;51730;56.950;24.126;2022-07-22T01:48:43;17.45;;;12.45;;
65145;SDS011;51730;56.950;24.126;2022-07-22T01:51:13;19.52;;;12.30;;
65145;SDS011;51730;56.950;24.126;2022-07-22T01:53:40;17.45;;;12.77;;
65145;SDS011;51730;56.950;24.126;2022-07-22T01:56:07;15.70;;;11.68;;
65145;SDS011;51730;56.950;24.126;2022-07-22T01:58:34;19.02;;;12.35;;
65145;SDS011;51730;56.950;24.126;2022-07-22T02:01:05;23.35;;;12.50;;
65145;SDS011;51730;56.950;24.126;2022-07-22T02:03:34;15.50;;;11.95;;
65145;SDS011;51730;56.950;24.126;2022-07-22T02:06:01;18.27;;;12.60;;
65145;SDS011;51730;56.950;24.126;2022-07-22T02:08:29;18.25;;;12.13;;
65145;SDS011;51730;56.950;24.126;2022-07-22T02:10:56;21.30;;;11.93;;
65145;SDS011;51730;56.950;24.126;2022-07-22T02:13:23;22.73;;;11.75;;
65145;SDS011;51730;56.950;24.126;2022-07-22T02:15:50;19.00;;;12.48;;
65145;SDS011;51730;56.950;24.126;2022-07-22T02:18:17;14.30;;;11.18;;
65145;SDS011;51730;56.950;24.126;2022-07-22T02:20:45;19.40;;;10.80;;
65145;SDS011;51730;56.950;24.126;2022-07-22T02:23:12;16.95;;;11.50;;
65145;SDS011;51730;56.950;24.126;2022-07-22T02:25:40;15.50;;;11.40;;
65145;SDS011;51730;56.950;24.126;2022-07-22T02:28:07;18.00;;;11.63;;
65145;SDS011;51730;56.950;24.126;2022-07-22T02:30:37;18.30;;;11.57;;
65145;SDS011;51730;56.950;24.126;2022-07-22T02:33:05;14.80;;;11.18;;
65145;SDS011;51730;56.950;24.126;2022-07-22T02:35:34;17.73;;;11.45;;
65145;SDS011;51730;56.950;24.126;2022-07-22T02:38:05;19.00;;;10.93;;
65145;SDS011;51730;56.950;24.126;2022-07-22T02:40:32;16.73;;;10.55;;
65145;SDS011;51730;56.950;24.126;2022-07-22T02:42:59;18.80;;;10.68;;
65145;SDS011;51730;56.950;24.126;2022-07-22T02:45:26;14.20;;;10.40;;
65145;SDS011;51730;56.950;24.126;2022-07-22T02:47:56;18.70;;;10.70;;
65145;SDS011;51730;56.950;24.126;2022-07-22T02:50:24;16.67;;;10.43;;
65145;SDS011;51730;56.950;24.126;2022-07-22T02:52:51;14.43;;;10.43;;
65145;SDS011;51730;56.950;24.126;2022-07-22T02:55:19;14.02;;;10.60;;
65145;SDS011;51730;56.950;24.126;2022-07-22T02:57:46;16.73;;;10.30;;
65145;SDS011;51730;56.950;24.126;2022-07-22T03:00:13;12.27;;;10.20;;
65145;SDS011;51730;56.950;24.126;2022-07-22T03:02:41;15.07;;;10.68;;
65145;SDS011;51730;56.950;24.126;2022-07-22T03:05:08;15.85;;;10.52;;
65145;SDS011;51730;56.950;24.126;2022-07-22T03:07:35;17.10;;;10.60;;
65145;SDS011;51730;56.950;24.126;2022-07-22T03:10:03;15.13;;;10.07;;
65145;SDS011;51730;56.950;24.126;2022-07-22T03:12:31;14.98;;;10.32;;
65145;SDS011;51730;56.950;24.126;2022-07-22T03:14:59;17.40;;;10.75;;
65145;SDS011;51730;56.950;24.126;2022-07-22T03:17:26;15.32;;;10.68;;
65145;SDS011;51730;56.950;24.126;2022-07-22T03:19:53;16.85;;;11.27;;
65145;SDS011;51730;56.950;24.126;2022-07-22T03:22:21;16.23;;;10.02;;
65145;SDS011;51730;56.950;24.126;2022-07-22T03:24:49;13.75;;;10.32;;
65145;SDS011;51730;56.950;24.126;2022-07-22T03:27:16;14.45;;;10.15;;
65145;SDS011;51730;56.950;24.126;2022-07-22T03:29:46;16.30;;;10.27;;
65145;SDS011;51730;56.950;24.126;2022-07-22T03:32:14;13.13;;;9.90;;
65145;SDS011;51730;56.950;24.126;2022-07-22T03:34:41;17.88;;;9.70;;
65145;SDS011;51730;56.950;24.126;2022-07-22T03:37:08;14.63;;;9.55;;
65145;SDS011;51730;56.950;24.126;2022-07-22T03:39:36;13.32;;;9.23;;
65145;SDS011;51730;56.950;24.126;2022-07-22T03:42:04;12.57;;;8.75;;
65145;SDS011;51730;56.950;24.126;2022-07-22T03:44:31;14.90;;;8.93;;
65145;SDS011;51730;56.950;24.126;2022-07-22T03:46:58;15.77;;;8.80;;
65145;SDS011;51730;56.950;24.126;2022-07-22T03:49:28;14.10;;;8.65;;
65145;SDS011;51730;56.950;24.126;2022-07-22T03:51:57;12.50;;;8.73;;
65145;SDS011;51730;56.950;24.126;2022-07-22T03:54:24;13.75;;;8.70;;
65145;SDS011;51730;56.950;24.126;2022-07-22T03:56:51;12.07;;;8.45;;
65145;SDS011;51730;56.950;24.126;2022-07-22T03:59:18;11.85;;;8.45;;
65145;SDS011;51730;56.950;24.126;2022-07-22T04:01:45;12.85;;;9.38;;
65145;SDS011;51730;56.950;24.126;2022-07-22T04:04:13;14.70;;;9.00;;
65145;SDS011;51730;56.950;24.126;2022-07-22T04:06:40;12.00;;;8.95;;
65145;SDS011;51730;56.950;24.126;2022-07-22T04:09:07;24.38;;;13.35;;
65145;SDS011;51730;56.950;24.126;2022-07-22T04:11:34;14.02;;;8.32;;
65145;SDS011;51730;56.950;24.126;2022-07-22T04:14:01;12.77;;;8.50;;
65145;SDS011;51730;56.950;24.126;2022-07-22T04:16:28;13.88;;;8.55;;
65145;SDS011;51730;56.950;24.126;2022-07-22T04:18:55;12.27;;;8.35;;
65145;SDS011;51730;56.950;24.126;2022-07-22T04:21:24;12.85;;;8.43;;
65145;SDS011;51730;56.950;24.126;2022-07-22T04:23:51;13.80;;;8.25;;
65145;SDS011;51730;56.950;24.126;2022-07-22T04:26:26;11.50;;;8.10;;
65145;SDS011;51730;56.950;24.126;2022-07-22T04:28:53;16.77;;;7.90;;
65145;SDS011;51730;56.950;24.126;2022-07-22T04:31:21;15.13;;;7.93;;
65145;SDS011;51730;56.950;24.126;2022-07-22T04:33:50;15.57;;;7.38;;
65145;SDS011;51730;56.950;24.126;2022-07-22T04:36:17;11.30;;;7.72;;
65145;SDS011;51730;56.950;24.126;2022-07-22T04:38:44;11.35;;;7.15;;
65145;SDS011;51730;56.950;24.126;2022-07-22T04:41:11;10.38;;;7.68;;
65145;SDS011;51730;56.950;24.126;2022-07-22T04:43:38;19.13;;;11.55;;
65145;SDS011;51730;56.950;24.126;2022-07-22T04:46:05;19.88;;;8.02;;
65145;SDS011;51730;56.950;24.126;2022-07-22T04:48:33;12.40;;;8.30;;
65145;SDS011;51730;56.950;24.126;2022-07-22T04:51:01;22.42;;;8.52;;
65145;SDS011;51730;56.950;24.126;2022-07-22T04:53:31;12.85;;;7.57;;
65145;SDS011;51730;56.950;24.126;2022-07-22T04:56:10;16.17;;;7.85;;
65145;SDS011;51730;56.950;24.126;2022-07-22T04:58:39;11.23;;;7.82;;
65145;SDS011;51730;56.950;24.126;2022-07-22T05:01:07;13.65;;;7.65;;
65145;SDS011;51730;56.950;24.126;2022-07-22T05:03:34;11.82;;;7.43;;
65145;SDS011;51730;56.950;24.126;2022-07-22T05:06:03;12.90;;;6.85;;
65145;SDS011;51730;56.950;24.126;2022-07-22T05:08:31;13.35;;;7.15;;
65145;SDS011;51730;56.950;24.126;2022-07-22T05:10:59;17.17;;;7.45;;
65145;SDS011;51730;56.950;24.126;2022-07-22T05:13:26;12.88;;;7.55;;
65145;SDS011;51730;56.950;24.126;2022-07-22T05:15:53;16.65;;;7.50;;
65145;SDS011;51730;56.950;24.126;2022-07-22T05:18:20;11.10;;;7.85;;
65145;SDS011;51730;56.950;24.126;2022-07-22T05:20:47;15.88;;;7.47;;
65145;SDS011;51730;56.950;24.126;2022-07-22T05:23:16;10.63;;;7.65;;
65145;SDS011;51730;56.950;24.126;2022-07-22T05:25:43;12.95;;;7.88;;
65145;SDS011;51730;56.950;24.126;2022-07-22T05:28:11;10.32;;;7.35;;
65145;SDS011;51730;56.950;24.126;2022-07-22T05:30:40;16.20;;;9.70;;
65145;SDS011;51730;56.950;24.126;2022-07-22T05:33:08;12.40;;;7.80;;
65145;SDS011;51730;56.950;24.126;2022-07-22T05:35:35;12.32;;;7.65;;
65145;SDS011;51730;56.950;24.126;2022-07-22T05:38:02;16.00;;;7.93;;
65145;SDS011;51730;56.950;24.126;2022-07-22T05:40:38;13.48;;;7.90;;
65145;SDS011;51730;56.950;24.126;2022-07-22T05:43:08;15.48;;;7.93;;
65145;SDS011;51730;56.950;24.126;2022-07-22T05:45:36;14.63;;;6.80;;
65145;SDS011;51730;56.950;24.126;2022-07-22T05:48:06;15.98;;;7.00;;
65145;SDS011;51730;56.950;24.126;2022-07-22T05:50:33;10.90;;;6.90;;
65145;SDS011;51730;56.950;24.126;2022-07-22T05:53:00;13.20;;;6.68;;
65145;SDS011;51730;56.950;24.126;2022-07-22T05:55:27;16.75;;;7.43;;
65145;SDS011;51730;56.950;24.126;2022-07-22T05:57:54;19.83;;;6.90;;
65145;SDS011;51730;56.950;24.126;2022-07-22T06:00:21;14.48;;;6.65;;
65145;SDS011;51730;56.950;24.126;2022-07-22T06:02:48;15.57;;;7.07;;
65145;SDS011;51730;56.950;24.126;2022-07-22T06:05:15;11.15;;;6.68;;
65145;SDS011;51730;56.950;24.126;2022-07-22T06:08:02;13.45;;;6.78;;
65145;SDS011;51730;56.950;24.126;2022-07-22T06:10:29;14.30;;;6.53;;
65145;SDS011;51730;56.950;24.126;2022-07-22T06:12:56;13.02;;;6.22;;
65145;SDS011;51730;56.950;24.126;2022-07-22T06:15:23;12.70;;;7.10;;
65145;SDS011;51730;56.950;24.126;2022-07-22T06:17:52;14.80;;;7.45;;
65145;SDS011;51730;56.950;24.126;2022-07-22T06:20:19;10.80;;;6.32;;
65145;SDS011;51730;56.950;24.126;2022-07-22T06:22:46;18.58;;;8.00;;
65145;SDS011;51730;56.950;24.126;2022-07-22T06:25:14;17.35;;;7.13;;
65145;SDS011;51730;56.950;24.126;2022-07-22T06:28:01;18.17;;;8.32;;
65145;SDS011;51730;56.950;24.126;2022-07-22T06:30:28;18.95;;;8.10;;
65145;SDS011;51730;56.950;24.126;2022-07-22T06:32:55;16.52;;;6.72;;
65145;SDS011;51730;56.950;24.126;2022-07-22T06:35:22;19.17;;;7.28;;
65145;SDS011;51730;56.950;24.126;2022-07-22T06:37:53;16.92;;;7.32;;
65145;SDS011;51730;56.950;24.126;2022-07-22T06:40:46;13.63;;;6.70;;
65145;SDS011;51730;56.950;24.126;2022-07-22T06:43:13;13.40;;;6.68;;
65145;SDS011;51730;56.950;24.126;2022-07-22T06:45:41;11.27;;;6.35;;
65145;SDS011;51730;56.950;24.126;2022-07-22T06:48:11;12.00;;;7.57;;
65145;SDS011;51730;56.950;24.126;2022-07-22T06:50:38;14.65;;;7.78;;
65145;SDS011;51730;56.950;24.126;2022-07-22T06:53:05;10.60;;;6.65;;
65145;SDS011;51730;56.950;24.126;2022-07-22T06:55:34;13.40;;;7.57;;
65145;SDS011;51730;56.950;24.126;2022-07-22T06:58:01;11.00;;;6.95;;
65145;SDS011;51730;56.950;24.126;2022-07-22T07:00:31;15.75;;;7.13;;
65145;SDS011;51730;56.950;24.126;2022-07-22T07:02:59;13.73;;;6.75;;
65145;SDS011;51730;56.950;24.126;2022-07-22T07:05:46;14.48;;;6.78;;
65145;SDS011;51730;56.950;24.126;2022-07-22T07:08:14;14.52;;;6.75;;
65145;SDS011;51730;56.950;24.126;2022-07-22T07:10:42;15.05;;;6.80;;
65145;SDS011;51730;56.950;24.126;2022-07-22T07:13:10;13.20;;;6.10;;
65145;SDS011;51730;56.950;24.126;2022-07-22T07:15:37;11.93;;;6.55;;
65145;SDS011;51730;56.950;24.126;2022-07-22T07:18:10;13.55;;;6.88;;
65145;SDS011;51730;56.950;24.126;2022-07-22T07:20:38;17.20;;;6.30;;
65145;SDS011;51730;56.950;24.126;2022-07-22T07:23:05;17.55;;;6.68;;
65145;SDS011;51730;56.950;24.126;2022-07-22T07:25:33;17.80;;;6.45;;
65145;SDS011;51730;56.950;24.126;2022-07-22T07:28:00;11.63;;;6.47;;
65145;SDS011;51730;56.950;24.126;2022-07-22T07:30:31;16.42;;;6.88;;
65145;SDS011;51730;56.950;24.126;2022-07-22T07:33:01;11.35;;;7.00;;
65145;SDS011;51730;56.950;24.126;2022-07-22T07:35:28;12.73;;;6.82;;
65145;SDS011;51730;56.950;24.126;2022-07-22T07:37:57;13.20;;;6.45;;
65145;SDS011;51730;56.950;24.126;2022-07-22T07:40:24;11.63;;;6.90;;
65145;SDS011;51730;56.950;24.126;2022-07-22T07:42:51;10.10;;;6.10;;
65145;SDS011;51730;56.950;24.126;2022-07-22T07:45:27;15.95;;;5.95;;
65145;SDS011;51730;56.950;24.126;2022-07-22T07:47:56;12.98;;;6.05;;
65145;SDS011;51730;56.950;24.126;2022-07-22T07:50:26;8.55;;;6.13;;
65145;SDS011;51730;56.950;24.126;2022-07-22T07:52:53;10.45;;;6.03;;
65145;SDS011;51730;56.950;24.126;2022-07-22T07:55:22;13.52;;;5.97;;
65145;SDS011;51730;56.950;24.126;2022-07-22T07:57:50;18.67;;;6.55;;
65145;SDS011;51730;56.950;24.126;2022-07-22T08:00:19;9.13;;;5.47;;
65145;SDS011;51730;56.950;24.126;2022-07-22T08:02:49;9.48;;;5.68;;
65145;SDS011;51730;56.950;24.126;2022-07-22T08:05:19;8.70;;;5.72;;
65145;SDS011;51730;56.950;24.126;2022-07-22T08:07:48;14.20;;;5.63;;
65145;SDS011;51730;56.950;24.126;2022-07-22T08:10:16;10.48;;;5.30;;
65145;SDS011;51730;56.950;24.126;2022-07-22T08:13:10;11.07;;;5.60;;
65145;SDS011;51730;56.950;24.126;2022-07-22T08:15:40;17.73;;;5.32;;
65145;SDS011;51730;56.950;24.126;2022-07-22T08:18:12;15.60;;;5.95;;
65145;SDS011;51730;56.950;24.126;2022-07-22T08:20:46;7.60;;;4.93;;
65145;SDS011;51730;56.950;24.126;2022-07-22T08:23:15;11.55;;;5.80;;
65145;SDS011;51730;56.950;24.126;2022-07-22T08:25:57;13.45;;;5.38;;
65145;SDS011;51730;56.950;24.126;2022-07-22T08:28:26;11.25;;;5.18;;
65145;SDS011;51730;56.950;24.126;2022-07-22T08:30:59;9.05;;;5.47;;
65145;SDS011;51730;56.950;24.126;2022-07-22T08:33:31;12.13;;;4.95;;
65145;SDS011;51730;56.950;24.126;2022-07-22T08:35:58;11.80;;;5.47;;
65145;SDS011;51730;56.950;24.126;2022-07-22T08:38:26;13.00;;;5.68;;
65145;SDS011;51730;56.950;24.126;2022-07-22T08:40:56;14.38;;;5.40;;
65145;SDS011;51730;56.950;24.126;2022-07-22T08:43:29;11.43;;;5.38;;
65145;SDS011;51730;56.950;24.126;2022-07-22T08:45:58;8.60;;;5.47;;
65145;SDS011;51730;56.950;24.126;2022-07-22T08:48:27;19.92;;;6.63;;
65145;SDS011;51730;56.950;24.126;2022-07-22T08:51:03;10.02;;;5.32;;
65145;SDS011;51730;56.950;24.126;2022-07-22T08:53:31;9.75;;;5.95;;
65145;SDS011;51730;56.950;24.126;2022-07-22T08:55:59;9.02;;;5.53;;
65145;SDS011;51730;56.950;24.126;2022-07-22T08:58:26;11.30;;;5.57;;
65145;SDS011;51730;56.950;24.126;2022-07-22T09:01:13;9.07;;;5.65;;
65145;SDS011;51730;56.950;24.126;2022-07-22T09:03:53;10.63;;;5.38;;
65145;SDS011;51730;56.950;24.126;2022-07-22T09:06:24;15.75;;;5.40;;
65145;SDS011;51730;56.950;24.126;2022-07-22T09:08:54;8.23;;;5.65;;
65145;SDS011;51730;56.950;24.126;2022-07-22T09:11:26;14.70;;;6.28;;
65145;SDS011;51730;56.950;24.126;2022-07-22T09:13:57;11.32;;;5.13;;
65145;SDS011;51730;56.950;24.126;2022-07-22T09:16:43;11.15;;;5.68;;
65145;SDS011;51730;56.950;24.126;2022-07-22T09:19:12;10.02;;;5.32;;
65145;SDS011;51730;56.950;24.126;2022-07-22T09:21:44;9.75;;;5.32;;
65145;SDS011;51730;56.950;24.126;2022-07-22T09:24:34;10.98;;;6.13;;
65145;SDS011;51730;56.950;24.126;2022-07-22T09:27:02;10.80;;;7.25;;
65145;SDS011;51730;56.950;24.126;2022-07-22T09:29:30;11.73;;;6.40;;
65145;SDS011;51730;56.950;24.126;2022-07-22T09:32:03;12.73;;;6.18;;
65145;SDS011;51730;56.950;24.126;2022-07-22T09:34:33;10.63;;;5.90;;
65145;SDS011;51730;56.950;24.126;2022-07-22T09:37:01;9.98;;;5.45;;
65145;SDS011;51730;56.950;24.126;2022-07-22T09:39:30;8.00;;;5.45;;
65145;SDS011;51730;56.950;24.126;2022-07-22T09:41:58;12.65;;;6.20;;
65145;SDS011;51730;56.950;24.126;2022-07-22T09:44:27;11.40;;;6.60;;
65145;SDS011;51730;56.950;24.126;2022-07-22T09:46:54;8.07;;;5.28;;
65145;SDS011;51730;56.950;24.126;2022-07-22T09:49:31;10.45;;;5.25;;
65145;SDS011;51730;56.950;24.126;2022-07-22T09:52:09;13.18;;;5.10;;
65145;SDS011;51730;56.950;24.126;2022-07-22T09:54:38;9.35;;;5.15;;
65145;SDS011;51730;56.950;24.126;2022-07-22T09:57:06;10.85;;;5.75;;
65145;SDS011;51730;56.950;24.126;2022-07-22T09:59:33;13.13;;;5.70;;
65145;SDS011;51730;56.950;24.126;2022-07-22T10:02:00;11.25;;;5.00;;
65145;SDS011;51730;56.950;24.126;2022-07-22T10:04:30;9.97;;;5.40;;
65145;SDS011;51730;56.950;24.126;2022-07-22T10:07:00;12.45;;;5.55;;
65145;SDS011;51730;56.950;24.126;2022-07-22T10:09:28;13.88;;;5.60;;
65145;SDS011;51730;56.950;24.126;2022-07-22T10:11:57;15.50;;;6.03;;
65145;SDS011;51730;56.950;24.126;2022-07-22T10:14:24;10.13;;;5.05;;
65145;SDS011;51730;56.950;24.126;2022-07-22T10:16:52;9.05;;;5.28;;
65145;SDS011;51730;56.950;24.126;2022-07-22T10:19:26;8.30;;;5.28;;
65145;SDS011;51730;56.950;24.126;2022-07-22T10:21:53;11.02;;;5.55;;
65145;SDS011;51730;56.950;24.126;2022-07-22T10:24:20;9.25;;;6.32;;
65145;SDS011;51730;56.950;24.126;2022-07-22T10:26:51;9.02;;;4.97;;
65145;SDS011;51730;56.950;24.126;2022-07-22T10:29:23;12.52;;;6.32;;
65145;SDS011;51730;56.950;24.126;2022-07-22T10:37:36;8.25;;;5.60;;
65145;SDS011;51730;56.950;24.126;2022-07-22T10:40:17;8.57;;;4.80;;
65145;SDS011;51730;56.950;24.126;2022-07-22T10:45:25;11.50;;;5.60;;
65145;SDS011;51730;56.950;24.126;2022-07-22T10:47:57;14.80;;;5.47;;
65145;SDS011;51730;56.950;24.126;2022-07-22T10:53:10;6.72;;;5.80;;
65145;SDS011;51730;56.950;24.126;2022-07-22T10:55:41;12.10;;;5.45;;
65145;SDS011;51730;56.950;24.126;2022-07-22T11:01:02;11.25;;;5.82;;
65145;SDS011;51730;56.950;24.126;2022-07-22T11:03:32;10.68;;;5.78;;
65145;SDS011;51730;56.950;24.126;2022-07-22T11:06:13;11.07;;;5.55;;
65145;SDS011;51730;56.950;24.126;2022-07-22T11:08:56;9.95;;;6.10;;
65145;SDS011;51730;56.950;24.126;2022-07-22T11:11:32;10.70;;;5.97;;
65145;SDS011;51730;56.950;24.126;2022-07-22T11:14:19;9.77;;;5.85;;
65145;SDS011;51730;56.950;24.126;2022-07-22T11:16:58;14.45;;;6.38;;
65145;SDS011;51730;56.950;24.126;2022-07-22T11:19:36;9.43;;;5.70;;
65145;SDS011;51730;56.950;24.126;2022-07-22T11:22:08;10.65;;;7.45;;
65145;SDS011;51730;56.950;24.126;2022-07-22T11:24:36;8.80;;;5.38;;
65145;SDS011;51730;56.950;24.126;2022-07-22T11:27:08;15.77;;;5.60;;
65145;SDS011;51730;56.950;24.126;2022-07-22T11:29:40;9.30;;;5.80;;
65145;SDS011;51730;56.950;24.126;2022-07-22T11:32:13;9.35;;;6.00;;
65145;SDS011;51730;56.950;24.126;2022-07-22T11:34:42;7.72;;;5.00;;
65145;SDS011;51730;56.950;24.126;2022-07-22T11:37:20;10.80;;;5.20;;
65145;SDS011;51730;56.950;24.126;2022-07-22T11:39:52;11.95;;;5.28;;
65145;SDS011;51730;56.950;24.126;2022-07-22T11:42:26;10.30;;;6.40;;
65145;SDS011;51730;56.950;24.126;2022-07-22T11:44:53;10.35;;;5.75;;
65145;SDS011;51730;56.950;24.126;2022-07-22T11:47:20;12.40;;;5.47;;
65145;SDS011;51730;56.950;24.126;2022-07-22T11:49:47;8.13;;;5.22;;
65145;SDS011;51730;56.950;24.126;2022-07-22T11:52:14;10.63;;;5.32;;
65145;SDS011;51730;56.950;24.126;2022-07-22T11:54:42;7.78;;;5.38;;
65145;SDS011;51730;56.950;24.126;2022-07-22T11:57:11;8.77;;;5.00;;
65145;SDS011;51730;56.950;24.126;2022-07-22T11:59:39;9.23;;;5.13;;
65145;SDS011;51730;56.950;24.126;2022-07-22T12:02:07;10.90;;;6.05;;
65145;SDS011;51730;56.950;24.126;2022-07-22T12:04:36;10.10;;;5.30;;
65145;SDS011;51730;56.950;24.126;2022-07-22T12:07:04;7.88;;;5.50;;
65145;SDS011;51730;56.950;24.126;2022-07-22T12:09:34;8.60;;;5.55;;
65145;SDS011;51730;56.950;24.126;2022-07-22T12:12:03;12.07;;;5.93;;
65145;SDS011;51730;56.950;24.126;2022-07-22T12:14:31;7.60;;;5.07;;
65145;SDS011;51730;56.950;24.126;2022-07-22T12:17:04;11.45;;;5.50;;
65145;SDS011;51730;56.950;24.126;2022-07-22T12:19:32;15.23;;;5.45;;
65145;SDS011;51730;56.950;24.126;2022-07-22T12:22:11;7.35;;;5.28;;
65145;SDS011;51730;56.950;24.126;2022-07-22T12:24:45;8.52;;;5.10;;
65145;SDS011;51730;56.950;24.126;2022-07-22T12:27:23;11.40;;;5.88;;
65145;SDS011;51730;56.950;24.126;2022-07-22T12:29:50;7.20;;;5.20;;
65145;SDS011;51730;56.950;24.126;2022-07-22T12:37:21;10.07;;;5.93;;
65145;SDS011;51730;56.950;24.126;2022-07-22T12:39:56;10.88;;;6.88;;
65145;SDS011;51730;56.950;24.126;2022-07-22T12:42:41;15.32;;;6.95;;
65145;SDS011;51730;56.950;24.126;2022-07-22T12:45:11;10.23;;;6.55;;
65145;SDS011;51730;56.950;24.126;2022-07-22T12:47:45;12.23;;;6.13;;
65145;SDS011;51730;56.950;24.126;2022-07-22T12:53:12;10.27;;;6.20;;
65145;SDS011;51730;56.950;24.126;2022-07-22T12:55:53;17.23;;;6.85;;
65145;SDS011;51730;56.950;24.126;2022-07-22T12:58:25;12.80;;;5.80;;
65145;SDS011;51730;56.950;24.126;2022-07-22T13:00:58;10.73;;;5.50;;
65145;SDS011;51730;56.950;24.126;2022-07-22T13:03:27;17.40;;;5.63;;
65145;SDS011;51730;56.950;24.126;2022-07-22T13:05:58;10.35;;;5.70;;
65145;SDS011;51730;56.950;24.126;2022-07-22T13:08:35;8.95;;;5.50;;
65145;SDS011;51730;56.950;24.126;2022-07-22T13:11:11;6.97;;;5.10;;
65145;SDS011;51730;56.950;24.126;2022-07-22T13:13:39;8.57;;;5.70;;
65145;SDS011;51730;56.950;24.126;2022-07-22T13:16:09;7.50;;;6.50;;
65145;SDS011;51730;56.950;24.126;2022-07-22T13:18:37;9.00;;;5.70;;
65145;SDS011;51730;56.950;24.126;2022-07-22T13:21:05;12.05;;;6.20;;
65145;SDS011;51730;56.950;24.126;2022-07-22T13:23:32;10.65;;;5.57;;
65145;SDS011;51730;56.950;24.126;2022-07-22T13:25:59;13.02;;;5.97;;
65145;SDS011;51730;56.950;24.126;2022-07-22T13:28:26;13.57;;;6.07;;
65145;SDS011;51730;56.950;24.126;2022-07-22T13:30:53;10.18;;;5.63;;
65145;SDS011;51730;56.950;24.126;2022-07-22T13:33:20;9.73;;;6.07;;
65145;SDS011;51730;56.950;24.126;2022-07-22T13:35:47;11.95;;;5.97;;
65145;SDS011;51730;56.950;24.126;2022-07-22T13:38:14;12.25;;;5.80;;
65145;SDS011;51730;56.950;24.126;2022-07-22T13:40:43;10.65;;;5.72;;
65145;SDS011;51730;56.950;24.126;2022-07-22T13:43:18;11.93;;;5.70;;
65145;SDS011;51730;56.950;24.126;2022-07-22T13:45:50;10.27;;;6.35;;
65145;SDS011;51730;56.950;24.126;2022-07-22T13:48:18;6.95;;;5.18;;
65145;SDS011;51730;56.950;24.126;2022-07-22T13:50:47;11.68;;;6.10;;
65145;SDS011;51730;56.950;24.126;2022-07-22T13:53:14;9.70;;;5.78;;
65145;SDS011;51730;56.950;24.126;2022-07-22T13:55:41;8.88;;;5.97;;
65145;SDS011;51730;56.950;24.126;2022-07-22T13:58:08;11.07;;;6.07;;
65145;SDS011;51730;56.950;24.126;2022-07-22T14:00:35;10.20;;;6.20;;
65145;SDS011;51730;56.950;24.126;2022-07-22T14:03:04;11.63;;;5.88;;
65145;SDS011;51730;56.950;24.126;2022-07-22T14:05:32;8.88;;;6.30;;
65145;SDS011;51730;56.950;24.126;2022-07-22T14:08:00;12.65;;;5.95;;
65145;SDS011;51730;56.950;24.126;2022-07-22T14:10:27;10.30;;;5.82;;
65145;SDS011;51730;56.950;24.126;2022-07-22T14:12:54;9.48;;;5.45;;
65145;SDS011;51730;56.950;24.126;2022-07-22T14:15:21;9.82;;;6.03;;
65145;SDS011;51730;56.950;24.126;2022-07-22T14:17:48;13.43;;;6.22;;
65145;SDS011;51730;56.950;24.126;2022-07-22T14:20:15;8.50;;;5.72;;
65145;SDS011;51730;56.950;24.126;2022-07-22T14:22:42;7.38;;;4.80;;
65145;SDS011;51730;56.950;24.126;2022-07-22T14:25:09;12.07;;;5.75;;
65145;SDS011;51730;56.950;24.126;2022-07-22T14:27:37;11.85;;;7.05;;
65145;SDS011;51730;56.950;24.126;2022-07-22T14:30:04;10.50;;;5.72;;
65145;SDS011;51730;56.950;24.126;2022-07-22T14:32:35;10.32;;;6.35;;
65145;SDS011;51730;56.950;24.126;2022-07-22T14:35:02;13.27;;;5.72;;
65145;SDS011;51730;56.950;24.126;2022-07-22T14:37:35;9.18;;;5.00;;
65145;SDS011;51730;56.950;24.126;2022-07-22T14:40:04;8.38;;;5.40;;
65145;SDS011;51730;56.950;24.126;2022-07-22T14:42:32;10.48;;;5.25;;
65145;SDS011;51730;56.950;24.126;2022-07-22T14:44:59;9.43;;;5.20;;
65145;SDS011;51730;56.950;24.126;2022-07-22T14:47:27;9.23;;;5.28;;
65145;SDS011;51730;56.950;24.126;2022-07-22T14:49:58;10.93;;;5.38;;
65145;SDS011;51730;56.950;24.126;2022-07-22T14:52:28;10.60;;;5.35;;
65145;SDS011;51730;56.950;24.126;2022-07-22T14:54:58;11.30;;;6.05;;